Time;durP1;ratioP1;P1;durP2;ratioP2;P2;SDS_P1;SDS_P2;PMS_P1;PMS_P2;Temp;Humidity;BMP_temperature;BMP_pressure;BME280_temperature;BME280_humidity;BME280_pressure;Samples;Min_cycle;Max_cycle;Signal;HPM_P1;HPM_P2
2023/08/31 00:01:39;;;;;;;0.13;0.13;;;;;;;;;;5097571;28;20051;-43
2023/08/31 00:04:06;;;;;;;0.10;0.10;;;;;;;;;;5096958;28;20130;-43
2023/08/31 00:06:31;;;;;;;0.10;0.10;;;;;;;;;;5097425;28;20062;-43
2023/08/31 00:08:57;;;;;;;0.10;0.10;;;;;;;;;;5097356;28;20051;-43
2023/08/31 00:11:23;;;;;;;0.10;0.10;;;;;;;;;;5097288;28;20048;-43
2023/08/31 00:13:49;;;;;;;0.10;0.10;;;;;;;;;;5097831;28;20047;-43
2023/08/31 00:16:14;;;;;;;0.10;0.10;;;;;;;;;;5097663;28;20051;-45
2023/08/31 00:18:40;;;;;;;0.10;0.10;;;;;;;;;;5097476;28;20058;-43
2023/08/31 00:21:06;;;;;;;0.10;0.10;;;;;;;;;;5097604;28;20055;-43
2023/08/31 00:23:33;;;;;;;0.10;0.10;;;;;;;;;;5097258;28;20040;-43
2023/08/31 00:25:59;;;;;;;0.10;0.10;;;;;;;;;;5097129;28;20473;-43
2023/08/31 00:28:25;;;;;;;0.10;0.10;;;;;;;;;;5087528;28;20146;-43
2023/08/31 00:30:51;;;;;;;0.10;0.10;;;;;;;;;;5076971;28;20075;-43
2023/08/31 00:33:17;;;;;;;0.20;0.20;;;;;;;;;;5077416;28;20044;-43
2023/08/31 00:35:45;;;;;;;0.10;0.10;;;;;;;;;;5105198;28;20099;-43
2023/08/31 00:38:11;;;;;;;0.10;0.10;;;;;;;;;;5091943;28;20090;-42
2023/08/31 00:40:40;;;;;;;0.10;0.10;;;;;;;;;;5097221;28;20055;-43
2023/08/31 00:43:07;;;;;;;0.10;0.10;;;;;;;;;;5097357;28;20473;-43
2023/08/31 00:45:33;;;;;;;0.10;0.10;;;;;;;;;;5096594;28;20507;-43
2023/08/31 00:47:58;;;;;;;0.10;0.10;;;;;;;;;;5096667;28;20043;-43
2023/08/31 00:50:24;;;;;;;0.10;0.10;;;;;;;;;;5096297;28;20059;-43
2023/08/31 00:52:49;;;;;;;0.10;0.10;;;;;;;;;;5096673;28;20130;-42
2023/08/31 00:55:17;;;;;;;0.20;0.20;;;;;;;;;;5096282;28;20442;-43
2023/08/31 00:57:43;;;;;;;0.10;0.10;;;;;;;;;;5091866;28;20109;-44
2023/08/31 01:00:10;;;;;;;0.10;0.10;;;;;;;;;;5076021;28;20048;-43
2023/08/31 01:02:40;;;;;;;0.10;0.10;;;;;;;;;;5077049;28;20043;-43
2023/08/31 01:05:35;;;;;;;0.10;0.10;;;;;;;;;;5089303;28;20424;-43
2023/08/31 01:10:44;;;;;;;0.10;0.10;;;;;;;;;;5175843;27;20212;-43
2023/08/31 01:13:13;;;;;;;0.20;0.20;;;;;;;;;;5155537;27;20061;-43
2023/08/31 01:15:41;;;;;;;0.10;0.10;;;;;;;;;;5154886;27;20054;-43
2023/08/31 01:18:09;;;;;;;0.10;0.10;;;;;;;;;;5147487;27;20051;-43
2023/08/31 01:20:38;;;;;;;0.10;0.10;;;;;;;;;;5134425;27;20062;-45
2023/08/31 01:23:08;;;;;;;0.10;0.10;;;;;;;;;;5134501;27;20526;-43
2023/08/31 01:25:33;;;;;;;0.10;0.10;;;;;;;;;;5149340;27;20054;-43
2023/08/31 01:27:59;;;;;;;0.10;0.10;;;;;;;;;;5154626;27;20057;-43
2023/08/31 01:30:25;;;;;;;0.10;0.10;;;;;;;;;;5155484;27;20051;-43
2023/08/31 01:32:50;;;;;;;0.10;0.10;;;;;;;;;;5155192;27;20072;-43
2023/08/31 01:35:17;;;;;;;0.10;0.10;;;;;;;;;;5157618;27;20090;-44
2023/08/31 01:37:47;;;;;;;0.10;0.10;;;;;;;;;;5158514;27;20556;-44
2023/08/31 01:40:17;;;;;;;0.15;0.15;;;;;;;;;;5153777;27;20509;-44
2023/08/31 01:42:43;;;;;;;0.10;0.10;;;;;;;;;;5139350;27;20043;-44
2023/08/31 01:45:10;;;;;;;0.10;0.10;;;;;;;;;;5132849;27;20050;-43
2023/08/31 01:47:36;;;;;;;0.10;0.10;;;;;;;;;;5133024;27;20046;-43
2023/08/31 01:50:02;;;;;;;0.10;0.10;;;;;;;;;;5133232;27;20142;-42
2023/08/31 01:52:27;;;;;;;0.10;0.10;;;;;;;;;;5133278;27;20108;-43
2023/08/31 01:54:53;;;;;;;0.10;0.10;;;;;;;;;;5132633;27;20054;-43
2023/08/31 01:57:18;;;;;;;0.10;0.10;;;;;;;;;;5132570;27;20039;-43
2023/08/31 01:59:44;;;;;;;0.10;0.10;;;;;;;;;;5133103;27;20414;-43
2023/08/31 02:02:09;;;;;;;0.10;0.10;;;;;;;;;;5132993;27;20051;-43
2023/08/31 02:04:35;;;;;;;0.10;0.10;;;;;;;;;;5127752;27;20050;-43
2023/08/31 02:07:01;;;;;;;0.10;0.10;;;;;;;;;;5133154;27;20055;-41
2023/08/31 02:09:26;;;;;;;0.10;0.10;;;;;;;;;;5132694;27;20133;-43
2023/08/31 02:11:52;;;;;;;0.10;0.10;;;;;;;;;;5133138;27;20054;-43
2023/08/31 02:14:18;;;;;;;0.10;0.10;;;;;;;;;;5132547;27;20053;-43
2023/08/31 02:16:44;;;;;;;0.10;0.10;;;;;;;;;;5133089;27;20047;-43
2023/08/31 02:19:09;;;;;;;0.10;0.10;;;;;;;;;;5116788;27;20104;-43
2023/08/31 02:21:35;;;;;;;0.10;0.10;;;;;;;;;;5101475;28;20052;-43
2023/08/31 02:24:00;;;;;;;0.10;0.10;;;;;;;;;;5098916;28;20040;-43
2023/08/31 02:26:26;;;;;;;0.10;0.10;;;;;;;;;;5119021;28;20130;-43
2023/08/31 02:28:51;;;;;;;0.10;0.10;;;;;;;;;;5117499;28;20092;-43
2023/08/31 02:31:18;;;;;;;0.10;0.10;;;;;;;;;;5119283;28;20051;-43
2023/08/31 02:33:43;;;;;;;0.10;0.10;;;;;;;;;;5116489;27;20047;-43
2023/08/31 02:36:09;;;;;;;0.10;0.10;;;;;;;;;;5119948;27;20058;-43
2023/08/31 02:38:34;;;;;;;0.10;0.10;;;;;;;;;;5116258;27;20479;-43
2023/08/31 02:41:00;;;;;;;0.10;0.10;;;;;;;;;;5107080;27;20043;-43
2023/08/31 02:43:25;;;;;;;0.10;0.10;;;;;;;;;;5119191;28;20039;-43
2023/08/31 02:45:58;;;;;;;0.10;0.10;;;;;;;;;;5118433;28;20047;-43
2023/08/31 02:48:24;;;;;;;0.10;0.10;;;;;;;;;;5107455;28;20126;-43
2023/08/31 02:50:50;;;;;;;0.10;0.10;;;;;;;;;;5097092;28;20455;-43
2023/08/31 02:53:15;;;;;;;0.10;0.10;;;;;;;;;;5097635;28;20510;-43
2023/08/31 02:55:42;;;;;;;0.10;0.10;;;;;;;;;;5111415;28;20114;-43
2023/08/31 02:58:07;;;;;;;0.10;0.10;;;;;;;;;;5118051;28;20685;-43
2023/08/31 03:00:33;;;;;;;0.10;0.10;;;;;;;;;;5118261;28;20216;-43
2023/08/31 03:02:59;;;;;;;0.10;0.10;;;;;;;;;;5118339;28;20500;-43
2023/08/31 03:05:24;;;;;;;0.10;0.10;;;;;;;;;;5117913;28;20421;-43
2023/08/31 03:07:50;;;;;;;0.10;0.10;;;;;;;;;;5118071;28;20457;-42
2023/08/31 03:10:15;;;;;;;0.10;0.10;;;;;;;;;;5117459;28;20039;-43
2023/08/31 03:12:41;;;;;;;0.10;0.10;;;;;;;;;;5118171;28;20276;-44
2023/08/31 03:15:07;;;;;;;0.10;0.10;;;;;;;;;;5117522;28;20047;-43
2023/08/31 03:17:32;;;;;;;0.10;0.10;;;;;;;;;;5117283;28;20406;-43
2023/08/31 03:19:58;;;;;;;0.10;0.10;;;;;;;;;;5117853;28;20512;-43
2023/08/31 03:22:23;;;;;;;0.10;0.10;;;;;;;;;;5117509;28;20483;-43
2023/08/31 03:24:49;;;;;;;0.10;0.10;;;;;;;;;;5116966;28;20142;-43
2023/08/31 03:27:16;;;;;;;0.10;0.10;;;;;;;;;;5117285;28;20070;-44
2023/08/31 03:29:41;;;;;;;0.10;0.10;;;;;;;;;;5109887;28;20099;-43
2023/08/31 03:32:07;;;;;;;0.10;0.10;;;;;;;;;;5117135;27;20047;-44
2023/08/31 03:34:32;;;;;;;0.10;0.10;;;;;;;;;;5109980;27;20047;-44
2023/08/31 03:36:58;;;;;;;0.10;0.10;;;;;;;;;;5128628;27;20538;-43
2023/08/31 03:39:24;;;;;;;0.10;0.10;;;;;;;;;;5101369;27;20079;-43
2023/08/31 03:41:50;;;;;;;0.10;0.10;;;;;;;;;;5098632;28;20139;-43
2023/08/31 03:44:15;;;;;;;0.10;0.10;;;;;;;;;;5117573;28;20051;-43
2023/08/31 03:46:42;;;;;;;0.10;0.10;;;;;;;;;;5117941;28;20043;-43
2023/08/31 03:49:07;;;;;;;0.10;0.10;;;;;;;;;;5117791;28;20393;-43
2023/08/31 03:51:33;;;;;;;0.10;0.10;;;;;;;;;;5117831;28;20270;-43
2023/08/31 03:53:58;;;;;;;0.10;0.10;;;;;;;;;;5117728;28;20415;-43
2023/08/31 03:56:24;;;;;;;0.10;0.10;;;;;;;;;;5117757;28;20455;-43
2023/08/31 03:58:49;;;;;;;0.10;0.10;;;;;;;;;;5104065;28;21029;-45
2023/08/31 04:01:15;;;;;;;0.10;0.10;;;;;;;;;;5096858;28;20432;-43
2023/08/31 04:03:42;;;;;;;0.10;0.10;;;;;;;;;;5097077;28;20403;-43
2023/08/31 04:06:08;;;;;;;0.10;0.10;;;;;;;;;;5111814;28;20047;-43
2023/08/31 04:08:33;;;;;;;0.10;0.10;;;;;;;;;;5105760;28;20253;-43
2023/08/31 04:10:59;;;;;;;0.10;0.10;;;;;;;;;;5095993;28;20140;-43
2023/08/31 04:13:24;;;;;;;0.10;0.10;;;;;;;;;;5096838;28;20052;-43
2023/08/31 04:15:50;;;;;;;0.10;0.10;;;;;;;;;;5108394;28;20453;-43
2023/08/31 04:18:15;;;;;;;0.10;0.10;;;;;;;;;;5107959;28;20082;-43
2023/08/31 04:20:47;;;;;;;0.10;0.10;;;;;;;;;;5095832;28;20050;-43
2023/08/31 04:23:13;;;;;;;0.10;0.10;;;;;;;;;;5095708;28;20043;-43
2023/08/31 04:25:39;;;;;;;0.10;0.10;;;;;;;;;;5105940;28;20058;-43
2023/08/31 04:28:04;;;;;;;0.20;0.20;;;;;;;;;;5109103;28;20052;-43
2023/08/31 04:30:31;;;;;;;0.10;0.10;;;;;;;;;;5100225;28;20144;-43
2023/08/31 04:32:56;;;;;;;0.10;0.10;;;;;;;;;;5116685;28;20483;-43
2023/08/31 04:35:22;;;;;;;0.10;0.10;;;;;;;;;;5106097;27;20058;-43
2023/08/31 04:37:47;;;;;;;0.10;0.10;;;;;;;;;;5123342;27;20573;-43
2023/08/31 04:40:13;;;;;;;0.10;0.10;;;;;;;;;;5095886;28;20059;-43
2023/08/31 04:42:39;;;;;;;0.10;0.10;;;;;;;;;;5096031;28;20052;-43
2023/08/31 04:45:05;;;;;;;0.10;0.10;;;;;;;;;;5108491;28;20043;-43
2023/08/31 04:47:30;;;;;;;0.10;0.10;;;;;;;;;;5116765;28;20430;-43
2023/08/31 04:49:57;;;;;;;0.10;0.10;;;;;;;;;;5116747;28;20134;-43
2023/08/31 04:52:22;;;;;;;0.10;0.10;;;;;;;;;;5116291;28;20081;-43
2023/08/31 04:54:48;;;;;;;0.10;0.10;;;;;;;;;;5116605;28;20086;-43
2023/08/31 04:57:13;;;;;;;0.20;0.20;;;;;;;;;;5114759;28;20051;-44
2023/08/31 04:59:39;;;;;;;0.10;0.10;;;;;;;;;;5108292;28;20043;-43
2023/08/31 05:02:04;;;;;;;0.10;0.10;;;;;;;;;;5111263;27;20051;-43
2023/08/31 05:04:30;;;;;;;0.10;0.10;;;;;;;;;;5116298;28;20469;-43
2023/08/31 05:06:56;;;;;;;0.10;0.10;;;;;;;;;;5116333;28;20536;-43
2023/08/31 05:09:23;;;;;;;0.10;0.10;;;;;;;;;;5112218;28;20486;-43
2023/08/31 05:11:49;;;;;;;0.10;0.10;;;;;;;;;;5116052;28;20051;-43
2023/08/31 05:14:14;;;;;;;0.13;0.13;;;;;;;;;;5116448;28;20082;-43
2023/08/31 05:16:40;;;;;;;0.10;0.10;;;;;;;;;;5114059;28;20043;-43
2023/08/31 05:19:06;;;;;;;0.10;0.10;;;;;;;;;;5109777;28;20039;-43
2023/08/31 05:21:31;;;;;;;0.10;0.10;;;;;;;;;;5096308;28;20055;-44
2023/08/31 05:23:57;;;;;;;0.10;0.10;;;;;;;;;;5108034;28;20146;-43
2023/08/31 05:26:22;;;;;;;0.10;0.10;;;;;;;;;;5114673;28;20055;-43
2023/08/31 05:28:48;;;;;;;0.10;0.10;;;;;;;;;;5102513;28;20105;-43
2023/08/31 05:31:14;;;;;;;0.10;0.10;;;;;;;;;;5095581;28;20043;-44
2023/08/31 05:33:39;;;;;;;0.10;0.10;;;;;;;;;;5111722;27;20138;-42
2023/08/31 05:36:05;;;;;;;0.10;0.10;;;;;;;;;;5119976;27;20039;-43
2023/08/31 05:38:30;;;;;;;0.10;0.10;;;;;;;;;;5108721;28;20515;-43
2023/08/31 05:41:11;;;;;;;0.10;0.10;;;;;;;;;;5100499;28;20132;-43
2023/08/31 05:43:39;;;;;;;0.10;0.10;;;;;;;;;;5109202;28;20094;-43
2023/08/31 05:46:05;;;;;;;0.10;0.10;;;;;;;;;;5108031;28;20772;-44
2023/08/31 05:48:31;;;;;;;0.10;0.10;;;;;;;;;;5095160;28;20108;-42
2023/08/31 05:50:57;;;;;;;0.10;0.10;;;;;;;;;;5103944;28;20059;-43
2023/08/31 05:53:22;;;;;;;0.20;0.20;;;;;;;;;;5110767;28;20359;-43
2023/08/31 05:55:48;;;;;;;0.10;0.10;;;;;;;;;;5110401;27;20043;-43
2023/08/31 05:58:13;;;;;;;0.10;0.10;;;;;;;;;;5103662;28;20047;-44
2023/08/31 06:00:39;;;;;;;0.10;0.10;;;;;;;;;;5093523;28;20118;-43
2023/08/31 06:03:05;;;;;;;0.10;0.10;;;;;;;;;;5106867;28;20058;-43
2023/08/31 06:05:31;;;;;;;0.10;0.10;;;;;;;;;;5101569;28;20043;-43
2023/08/31 06:07:57;;;;;;;0.10;0.10;;;;;;;;;;5104977;28;20099;-43
2023/08/31 06:10:23;;;;;;;0.10;0.10;;;;;;;;;;5109147;28;20066;-44
2023/08/31 06:12:49;;;;;;;0.10;0.10;;;;;;;;;;5105038;28;20039;-44
2023/08/31 06:15:17;;;;;;;0.10;0.10;;;;;;;;;;5108536;28;20054;-44
2023/08/31 06:17:42;;;;;;;0.10;0.10;;;;;;;;;;5110520;28;20138;-46
2023/08/31 06:20:08;;;;;;;0.22;0.22;;;;;;;;;;5105764;28;20039;-46
2023/08/31 06:22:34;;;;;;;0.10;0.10;;;;;;;;;;5110649;28;20385;-46
2023/08/31 06:25:00;;;;;;;0.10;0.10;;;;;;;;;;5110658;28;20107;-46
2023/08/31 06:27:25;;;;;;;0.10;0.10;;;;;;;;;;5103719;28;20049;-46
2023/08/31 06:29:51;;;;;;;0.40;0.35;;;;;;;;;;5110570;28;20462;-48
2023/08/31 06:32:17;;;;;;;0.20;0.20;;;;;;;;;;5115171;27;20134;-47
2023/08/31 06:34:42;;;;;;;0.10;0.10;;;;;;;;;;5108615;27;20050;-46
2023/08/31 06:37:08;;;;;;;0.20;0.20;;;;;;;;;;5117286;27;20146;-46
2023/08/31 06:39:33;;;;;;;0.13;0.13;;;;;;;;;;5113292;28;20587;-47
2023/08/31 06:41:59;;;;;;;0.20;0.20;;;;;;;;;;5104866;28;20520;-46
2023/08/31 06:44:25;;;;;;;0.10;0.10;;;;;;;;;;5110797;28;20051;-47
2023/08/31 06:46:50;;;;;;;0.13;0.13;;;;;;;;;;5100941;28;21200;-46
2023/08/31 06:49:16;;;;;;;0.10;0.10;;;;;;;;;;5100620;27;20054;-47
2023/08/31 06:51:41;;;;;;;0.20;0.20;;;;;;;;;;5099125;28;20040;-47
2023/08/31 06:54:07;;;;;;;0.20;0.20;;;;;;;;;;5101701;28;20079;-44
2023/08/31 06:56:33;;;;;;;0.10;0.10;;;;;;;;;;5097168;27;20466;-43
2023/08/31 06:58:59;;;;;;;0.10;0.10;;;;;;;;;;5095636;28;20372;-43
2023/08/31 07:01:24;;;;;;;0.20;0.20;;;;;;;;;;5090809;28;20555;-44
2023/08/31 07:03:50;;;;;;;0.10;0.10;;;;;;;;;;5072601;28;20047;-44
2023/08/31 07:06:15;;;;;;;0.20;0.20;;;;;;;;;;5090236;27;20059;-44
2023/08/31 07:08:45;;;;;;;0.10;0.10;;;;;;;;;;5087646;28;20043;-43
2023/08/31 07:11:11;;;;;;;0.10;0.10;;;;;;;;;;5097681;28;20190;-43
2023/08/31 07:13:36;;;;;;;0.10;0.10;;;;;;;;;;5097224;27;20071;-43
2023/08/31 07:16:02;;;;;;;0.10;0.10;;;;;;;;;;5100116;28;20051;-43
2023/08/31 07:18:28;;;;;;;0.10;0.10;;;;;;;;;;5102649;28;20047;-43
2023/08/31 07:20:54;;;;;;;0.10;0.10;;;;;;;;;;5106976;28;20496;-43
2023/08/31 07:23:19;;;;;;;0.10;0.10;;;;;;;;;;5105209;28;20208;-44
2023/08/31 07:25:45;;;;;;;0.10;0.10;;;;;;;;;;5106364;28;20128;-44
2023/08/31 07:28:11;;;;;;;0.10;0.10;;;;;;;;;;5100227;28;20142;-43
2023/08/31 07:30:37;;;;;;;0.10;0.10;;;;;;;;;;5104822;28;20550;-43
2023/08/31 07:33:03;;;;;;;0.10;0.10;;;;;;;;;;5109634;27;20487;-43
2023/08/31 07:35:42;;;;;;;0.10;0.10;;;;;;;;;;5106770;28;20050;-43
2023/08/31 07:38:07;;;;;;;0.10;0.10;;;;;;;;;;5106697;28;20180;-43
2023/08/31 07:40:33;;;;;;;0.10;0.10;;;;;;;;;;5094638;27;20112;-43
2023/08/31 07:42:59;;;;;;;0.10;0.10;;;;;;;;;;5101348;28;20468;-43
2023/08/31 07:45:24;;;;;;;0.10;0.10;;;;;;;;;;5097002;27;20085;-43
2023/08/31 07:47:50;;;;;;;0.10;0.10;;;;;;;;;;5102029;28;20057;-43
2023/08/31 07:50:15;;;;;;;0.10;0.10;;;;;;;;;;5095068;27;20051;-42
2023/08/31 07:52:41;;;;;;;0.10;0.10;;;;;;;;;;5094230;27;20051;-43
2023/08/31 07:55:07;;;;;;;0.10;0.10;;;;;;;;;;5104787;27;20414;-44
2023/08/31 07:57:34;;;;;;;0.10;0.10;;;;;;;;;;5102743;27;20051;-43
2023/08/31 07:59:59;;;;;;;0.10;0.10;;;;;;;;;;5101013;27;20203;-43
2023/08/31 08:02:25;;;;;;;0.10;0.10;;;;;;;;;;5102131;27;20126;-43
2023/08/31 08:04:50;;;;;;;0.10;0.10;;;;;;;;;;5099220;27;20053;-46
2023/08/31 08:07:16;;;;;;;0.10;0.10;;;;;;;;;;5083322;27;20053;-43
2023/08/31 08:09:42;;;;;;;0.10;0.10;;;;;;;;;;5096886;27;20046;-45
2023/08/31 08:12:07;;;;;;;0.10;0.10;;;;;;;;;;5093152;27;20067;-46
2023/08/31 08:14:33;;;;;;;0.10;0.10;;;;;;;;;;5086058;27;20535;-44
2023/08/31 08:16:59;;;;;;;0.10;0.10;;;;;;;;;;5095580;27;20047;-47
2023/08/31 08:19:25;;;;;;;0.10;0.10;;;;;;;;;;5097742;27;20587;-44
2023/08/31 08:21:51;;;;;;;0.10;0.10;;;;;;;;;;5097227;27;20051;-44
2023/08/31 08:24:16;;;;;;;0.10;0.10;;;;;;;;;;5094021;27;20092;-44
2023/08/31 08:26:42;;;;;;;0.10;0.10;;;;;;;;;;5095727;27;20103;-45
2023/08/31 08:29:07;;;;;;;0.10;0.10;;;;;;;;;;5102422;28;20424;-43
2023/08/31 08:31:33;;;;;;;0.10;0.10;;;;;;;;;;5092061;27;20552;-45
2023/08/31 08:34:00;;;;;;;0.10;0.10;;;;;;;;;;5080003;27;20173;-46
2023/08/31 08:36:25;;;;;;;0.10;0.10;;;;;;;;;;5088854;27;20393;-45
2023/08/31 08:38:51;;;;;;;0.10;0.10;;;;;;;;;;5088743;27;20446;-43
2023/08/31 08:41:21;;;;;;;0.10;0.10;;;;;;;;;;5085674;27;20827;-46
2023/08/31 08:43:48;;;;;;;0.10;0.10;;;;;;;;;;5079501;28;20050;-45
2023/08/31 08:46:14;;;;;;;0.10;0.10;;;;;;;;;;5085043;27;21046;-48
2023/08/31 08:48:40;;;;;;;0.10;0.10;;;;;;;;;;5079083;27;20140;-45
2023/08/31 08:51:07;;;;;;;0.10;0.10;;;;;;;;;;5080345;27;20050;-43
2023/08/31 08:53:33;;;;;;;0.10;0.10;;;;;;;;;;5087254;27;20162;-45
2023/08/31 08:55:58;;;;;;;0.10;0.10;;;;;;;;;;5085777;27;20043;-45
2023/08/31 08:58:24;;;;;;;0.10;0.10;;;;;;;;;;5085736;27;20039;-43
2023/08/31 09:00:50;;;;;;;0.10;0.10;;;;;;;;;;5089263;28;20074;-43
2023/08/31 09:03:16;;;;;;;0.10;0.10;;;;;;;;;;5086054;27;21492;-45
2023/08/31 09:05:42;;;;;;;0.10;0.10;;;;;;;;;;5082882;27;20043;-44
2023/08/31 09:08:15;;;;;;;0.20;0.20;;;;;;;;;;5085188;27;20151;-49
2023/08/31 09:10:43;;;;;;;0.10;0.10;;;;;;;;;;5089205;27;20348;-43
2023/08/31 09:13:09;;;;;;;0.10;0.10;;;;;;;;;;5087065;27;20518;-44
2023/08/31 09:15:38;;;;;;;0.10;0.10;;;;;;;;;;5087626;27;20589;-44
2023/08/31 09:18:04;;;;;;;0.10;0.10;;;;;;;;;;5086460;27;20054;-44
2023/08/31 09:20:29;;;;;;;0.10;0.10;;;;;;;;;;5087034;28;20627;-44
2023/08/31 09:22:56;;;;;;;0.10;0.10;;;;;;;;;;5089102;27;20051;-44
2023/08/31 09:25:21;;;;;;;0.10;0.10;;;;;;;;;;5080328;27;20043;-44
2023/08/31 09:27:48;;;;;;;0.10;0.10;;;;;;;;;;5076766;28;20051;-44
2023/08/31 09:30:13;;;;;;;0.10;0.10;;;;;;;;;;5075822;27;20153;-44
2023/08/31 09:32:41;;;;;;;0.10;0.10;;;;;;;;;;5079337;27;20051;-44
2023/08/31 09:35:08;;;;;;;0.10;0.10;;;;;;;;;;5072304;27;20047;-44
2023/08/31 09:37:54;;;;;;;0.10;0.10;;;;;;;;;;5076643;27;20051;-43
2023/08/31 09:40:19;;;;;;;0.10;0.10;;;;;;;;;;5084727;27;20047;-46
2023/08/31 09:42:49;;;;;;;0.10;0.10;;;;;;;;;;5096820;27;20487;-44
2023/08/31 09:45:16;;;;;;;0.10;0.10;;;;;;;;;;5084323;27;20293;-45
2023/08/31 09:47:44;;;;;;;0.10;0.10;;;;;;;;;;5095438;27;20179;-45
2023/08/31 09:50:10;;;;;;;0.10;0.10;;;;;;;;;;5104764;27;20354;-44
2023/08/31 09:52:37;;;;;;;0.10;0.10;;;;;;;;;;5101378;27;20443;-45
2023/08/31 09:55:03;;;;;;;0.10;0.10;;;;;;;;;;5100700;27;20904;-45
2023/08/31 09:57:29;;;;;;;0.10;0.10;;;;;;;;;;5105895;27;20071;-44
2023/08/31 10:00:11;;;;;;;0.10;0.10;;;;;;;;;;5106806;27;20043;-44
2023/08/31 10:02:36;;;;;;;0.10;0.10;;;;;;;;;;5102676;28;20804;-44
2023/08/31 10:05:02;;;;;;;0.10;0.10;;;;;;;;;;5100828;27;20514;-44
2023/08/31 10:07:29;;;;;;;0.10;0.10;;;;;;;;;;5102943;27;20468;-44
2023/08/31 10:09:55;;;;;;;0.10;0.10;;;;;;;;;;5105806;27;20082;-43
2023/08/31 10:12:21;;;;;;;0.10;0.10;;;;;;;;;;5107818;27;20514;-44
2023/08/31 10:14:49;;;;;;;0.10;0.10;;;;;;;;;;5104844;28;20055;-44
2023/08/31 10:17:14;;;;;;;0.10;0.10;;;;;;;;;;5100972;27;20043;-45
2023/08/31 10:19:40;;;;;;;0.10;0.10;;;;;;;;;;5105225;27;20057;-44
2023/08/31 10:22:06;;;;;;;0.10;0.10;;;;;;;;;;5108650;27;20051;-44
2023/08/31 10:24:51;;;;;;;0.10;0.10;;;;;;;;;;5097885;27;20042;-44
2023/08/31 10:27:18;;;;;;;0.20;0.20;;;;;;;;;;5084231;28;20048;-44
2023/08/31 10:29:43;;;;;;;0.10;0.10;;;;;;;;;;5100347;27;20047;-45
2023/08/31 10:32:09;;;;;;;0.10;0.10;;;;;;;;;;5107415;27;20091;-43
2023/08/31 10:34:36;;;;;;;0.10;0.10;;;;;;;;;;5099293;27;20055;-44
2023/08/31 10:37:03;;;;;;;0.10;0.10;;;;;;;;;;5095725;27;20080;-44
2023/08/31 10:39:39;;;;;;;0.10;0.10;;;;;;;;;;5100431;27;20410;-43
2023/08/31 10:42:04;;;;;;;0.10;0.10;;;;;;;;;;5088442;28;20530;-43
2023/08/31 10:44:30;;;;;;;0.10;0.10;;;;;;;;;;5083799;28;20061;-44
2023/08/31 10:46:59;;;;;;;0.10;0.10;;;;;;;;;;5094463;27;20095;-43
2023/08/31 10:49:25;;;;;;;0.10;0.10;;;;;;;;;;5099697;27;20040;-43
2023/08/31 10:51:55;;;;;;;0.10;0.10;;;;;;;;;;5109098;27;20086;-45
2023/08/31 10:54:24;;;;;;;0.10;0.10;;;;;;;;;;5108452;27;20467;-44
2023/08/31 10:56:54;;;;;;;0.10;0.10;;;;;;;;;;5071709;27;20533;-43
2023/08/31 10:59:20;;;;;;;0.10;0.10;;;;;;;;;;5098463;27;20051;-43
2023/08/31 11:02:02;;;;;;;0.10;0.10;;;;;;;;;;5093647;27;20450;-45
2023/08/31 11:04:29;;;;;;;0.10;0.10;;;;;;;;;;5103124;27;20475;-44
2023/08/31 11:07:14;;;;;;;0.10;0.10;;;;;;;;;;5100561;27;20268;-45
2023/08/31 11:09:40;;;;;;;0.10;0.10;;;;;;;;;;5081136;27;20045;-43
2023/08/31 11:12:06;;;;;;;0.10;0.10;;;;;;;;;;5084984;28;20047;-44
2023/08/31 11:14:32;;;;;;;0.20;0.20;;;;;;;;;;5092686;27;20562;-44
2023/08/31 11:16:58;;;;;;;0.10;0.10;;;;;;;;;;5102177;27;20050;-45
2023/08/31 11:19:25;;;;;;;0.10;0.10;;;;;;;;;;5086080;27;20508;-44
2023/08/31 11:21:50;;;;;;;0.10;0.10;;;;;;;;;;5096955;27;20231;-45
2023/08/31 11:24:17;;;;;;;0.10;0.10;;;;;;;;;;5096709;27;20051;-44
2023/08/31 11:26:42;;;;;;;0.10;0.10;;;;;;;;;;5095482;27;20138;-43
2023/08/31 11:29:08;;;;;;;0.10;0.10;;;;;;;;;;5096792;27;20038;-47
2023/08/31 11:31:38;;;;;;;0.20;0.20;;;;;;;;;;5067810;28;20551;-43
2023/08/31 11:34:05;;;;;;;0.20;0.20;;;;;;;;;;5086589;27;20436;-44
2023/08/31 11:36:31;;;;;;;0.10;0.10;;;;;;;;;;5096587;27;20073;-43
2023/08/31 11:38:56;;;;;;;0.10;0.10;;;;;;;;;;5105656;27;20058;-44
2023/08/31 11:41:22;;;;;;;0.10;0.10;;;;;;;;;;5102390;27;20051;-43
2023/08/31 11:43:48;;;;;;;0.10;0.10;;;;;;;;;;5096659;27;20187;-43
2023/08/31 11:46:15;;;;;;;0.10;0.10;;;;;;;;;;5101059;27;20540;-44
2023/08/31 11:48:41;;;;;;;0.10;0.10;;;;;;;;;;5100869;27;20115;-45
2023/08/31 11:51:06;;;;;;;0.10;0.10;;;;;;;;;;5108368;28;20035;-43
2023/08/31 11:53:32;;;;;;;0.10;0.10;;;;;;;;;;5101763;27;20116;-43
2023/08/31 11:56:01;;;;;;;0.10;0.10;;;;;;;;;;5094260;27;20075;-44
2023/08/31 11:58:27;;;;;;;0.10;0.10;;;;;;;;;;5100321;27;20100;-45
2023/08/31 12:01:00;;;;;;;0.10;0.10;;;;;;;;;;5108930;28;20112;-45
2023/08/31 12:03:26;;;;;;;0.10;0.10;;;;;;;;;;5107879;27;20062;-44
2023/08/31 12:06:10;;;;;;;0.10;0.10;;;;;;;;;;5101939;27;20043;-45
2023/08/31 12:08:36;;;;;;;0.10;0.10;;;;;;;;;;5095970;28;20043;-43
2023/08/31 12:11:02;;;;;;;0.20;0.20;;;;;;;;;;5109093;27;20501;-44
2023/08/31 12:13:28;;;;;;;0.10;0.10;;;;;;;;;;5104477;27;20559;-44
2023/08/31 12:15:55;;;;;;;0.10;0.10;;;;;;;;;;5098811;28;20049;-43
2023/08/31 12:18:21;;;;;;;0.10;0.10;;;;;;;;;;5106284;27;20043;-43
2023/08/31 12:20:48;;;;;;;0.20;0.20;;;;;;;;;;5106264;27;20046;-45
2023/08/31 12:23:15;;;;;;;0.10;0.10;;;;;;;;;;5100266;28;20046;-42
2023/08/31 12:25:55;;;;;;;0.10;0.10;;;;;;;;;;5108609;28;20244;-45
2023/08/31 12:28:23;;;;;;;0.43;0.43;;;;;;;;;;5094784;27;20253;-43
2023/08/31 12:30:49;;;;;;;0.10;0.10;;;;;;;;;;5094531;27;20495;-42
2023/08/31 12:33:15;;;;;;;0.10;0.10;;;;;;;;;;5076303;28;20046;-45
2023/08/31 12:35:40;;;;;;;0.10;0.10;;;;;;;;;;5081866;27;20142;-43
2023/08/31 12:38:07;;;;;;;0.10;0.10;;;;;;;;;;5081867;27;20051;-46
2023/08/31 12:40:32;;;;;;;0.10;0.10;;;;;;;;;;5094309;27;20046;-43
2023/08/31 12:42:58;;;;;;;0.10;0.10;;;;;;;;;;5062744;27;20188;-43
2023/08/31 12:45:23;;;;;;;0.10;0.10;;;;;;;;;;5101291;27;20047;-44
2023/08/31 12:47:49;;;;;;;0.10;0.10;;;;;;;;;;5105817;27;20126;-46
2023/08/31 12:50:15;;;;;;;0.20;0.20;;;;;;;;;;5102572;27;20035;-44
2023/08/31 12:52:44;;;;;;;0.10;0.10;;;;;;;;;;5104620;27;20043;-45
2023/08/31 12:55:10;;;;;;;0.10;0.10;;;;;;;;;;5105326;27;20043;-43
2023/08/31 12:57:35;;;;;;;0.10;0.10;;;;;;;;;;5109465;27;20407;-43
2023/08/31 13:00:03;;;;;;;0.10;0.10;;;;;;;;;;5073923;27;20058;-45
2023/08/31 13:02:29;;;;;;;0.10;0.10;;;;;;;;;;5111758;27;20062;-45
2023/08/31 13:04:55;;;;;;;0.10;0.10;;;;;;;;;;5103549;27;20074;-42
2023/08/31 13:07:20;;;;;;;0.10;0.10;;;;;;;;;;5107667;27;20039;-43
2023/08/31 13:09:46;;;;;;;0.10;0.10;;;;;;;;;;5104747;27;20076;-43
2023/08/31 13:12:14;;;;;;;0.10;0.10;;;;;;;;;;5100083;27;20404;-43
2023/08/31 13:14:39;;;;;;;0.10;0.10;;;;;;;;;;5055209;27;20399;-46
2023/08/31 13:17:06;;;;;;;0.10;0.10;;;;;;;;;;5063636;27;20058;-43
2023/08/31 13:19:31;;;;;;;0.10;0.10;;;;;;;;;;5095093;27;20051;-46
2023/08/31 13:21:57;;;;;;;0.20;0.20;;;;;;;;;;5109452;27;20047;-43
2023/08/31 13:24:22;;;;;;;0.20;0.20;;;;;;;;;;5109929;27;20423;-43
2023/08/31 13:26:48;;;;;;;0.10;0.10;;;;;;;;;;5088020;27;20031;-44
2023/08/31 13:29:14;;;;;;;0.10;0.10;;;;;;;;;;5109689;27;20048;-45
2023/08/31 13:31:40;;;;;;;0.10;0.10;;;;;;;;;;5102143;27;20325;-46
2023/08/31 13:34:07;;;;;;;0.10;0.10;;;;;;;;;;5103083;27;20049;-44
2023/08/31 13:36:33;;;;;;;0.10;0.10;;;;;;;;;;5100927;27;20086;-43
2023/08/31 13:38:59;;;;;;;0.10;0.10;;;;;;;;;;5093864;27;20838;-45
2023/08/31 13:41:24;;;;;;;0.10;0.10;;;;;;;;;;5090593;27;20074;-44
2023/08/31 13:43:50;;;;;;;0.20;0.20;;;;;;;;;;5109293;27;20346;-44
2023/08/31 13:46:15;;;;;;;0.20;0.20;;;;;;;;;;5093511;27;20380;-47
2023/08/31 13:48:41;;;;;;;0.15;0.15;;;;;;;;;;5103674;27;20246;-43
2023/08/31 13:51:07;;;;;;;0.10;0.10;;;;;;;;;;5094344;27;20062;-43
2023/08/31 13:53:32;;;;;;;0.10;0.10;;;;;;;;;;5105515;27;20051;-45
2023/08/31 13:55:58;;;;;;;0.10;0.10;;;;;;;;;;5097366;27;20473;-45
2023/08/31 13:58:23;;;;;;;0.10;0.10;;;;;;;;;;5105684;27;20128;-43
2023/08/31 14:00:49;;;;;;;0.10;0.10;;;;;;;;;;5105582;27;20044;-46
2023/08/31 14:03:15;;;;;;;0.17;0.17;;;;;;;;;;5111306;27;20039;-43
2023/08/31 14:05:41;;;;;;;0.10;0.10;;;;;;;;;;5099194;27;20135;-44
2023/08/31 14:08:07;;;;;;;0.10;0.10;;;;;;;;;;5105199;27;20071;-43
2023/08/31 14:10:33;;;;;;;0.10;0.10;;;;;;;;;;5104980;27;20533;-45
2023/08/31 14:12:58;;;;;;;0.10;0.10;;;;;;;;;;5094069;28;20039;-44
2023/08/31 14:15:24;;;;;;;0.10;0.10;;;;;;;;;;5103947;27;20058;-43
2023/08/31 14:17:51;;;;;;;0.10;0.10;;;;;;;;;;5104576;27;20055;-46
2023/08/31 14:20:17;;;;;;;0.10;0.10;;;;;;;;;;5100631;27;20054;-44
2023/08/31 14:22:44;;;;;;;0.10;0.10;;;;;;;;;;5100226;27;20130;-43
2023/08/31 14:25:11;;;;;;;0.10;0.10;;;;;;;;;;5109555;27;20036;-43
2023/08/31 14:27:36;;;;;;;0.10;0.10;;;;;;;;;;5106468;27;20556;-43
2023/08/31 14:30:02;;;;;;;0.10;0.10;;;;;;;;;;5102909;27;20079;-42
2023/08/31 14:32:28;;;;;;;0.10;0.10;;;;;;;;;;5097716;27;20100;-43
2023/08/31 14:34:54;;;;;;;0.10;0.10;;;;;;;;;;5119416;27;20039;-43
2023/08/31 14:37:19;;;;;;;0.10;0.10;;;;;;;;;;5124437;27;20047;-42
2023/08/31 14:39:45;;;;;;;0.10;0.10;;;;;;;;;;5105446;27;20058;-45
2023/08/31 14:42:11;;;;;;;0.10;0.10;;;;;;;;;;5097371;27;20047;-43